sensor_id;sensor_type;location;lat;lon;timestamp;pressure;altitude;pressure_sealevel;temperature;humidity
47082;BME280;33066;49.296;14.470;2022-08-05T00:02:21;96820.46;;;27.71;32.55
47082;BME280;33066;49.296;14.470;2022-08-05T00:04:48;96822.69;;;28.13;32.55
47082;BME280;33066;49.296;14.470;2022-08-05T00:07:13;96821.65;;;28.06;32.58
47082;BME280;33066;49.296;14.470;2022-08-05T00:09:37;96818.19;;;27.98;33.08
47082;BME280;33066;49.296;14.470;2022-08-05T00:12:04;96819.60;;;27.92;33.35
47082;BME280;33066;49.296;14.470;2022-08-05T00:14:28;96819.94;;;27.77;33.56
47082;BME280;33066;49.296;14.470;2022-08-05T00:16:54;96817.61;;;27.65;33.76
47082;BME280;33066;49.296;14.470;2022-08-05T00:19:18;96817.86;;;27.59;33.80
47082;BME280;33066;49.296;14.470;2022-08-05T00:21:44;96816.61;;;27.52;33.85
47082;BME280;33066;49.296;14.470;2022-08-05T00:24:09;96814.18;;;27.67;33.93
47082;BME280;33066;49.296;14.470;2022-08-05T00:26:35;96811.04;;;27.38;33.89
47082;BME280;33066;49.296;14.470;2022-08-05T00:29:00;96811.81;;;27.39;33.23
47082;BME280;33066;49.296;14.470;2022-08-05T00:31:25;96808.71;;;27.45;33.42
47082;BME280;33066;49.296;14.470;2022-08-05T00:33:52;96808.33;;;27.46;33.19
47082;BME280;33066;49.296;14.470;2022-08-05T00:36:17;96807.55;;;27.43;33.24
47082;BME280;33066;49.296;14.470;2022-08-05T00:38:42;96807.20;;;27.46;32.88
47082;BME280;33066;49.296;14.470;2022-08-05T00:41:07;96806.60;;;27.47;31.61
47082;BME280;33066;49.296;14.470;2022-08-05T00:43:33;96806.62;;;27.48;31.30
47082;BME280;33066;49.296;14.470;2022-08-05T00:45:58;96806.87;;;27.58;31.49
47082;BME280;33066;49.296;14.470;2022-08-05T00:48:24;96806.41;;;27.52;32.17
47082;BME280;33066;49.296;14.470;2022-08-05T00:50:50;96804.25;;;27.47;32.39
47082;BME280;33066;49.296;14.470;2022-08-05T00:53:14;96806.29;;;27.57;32.64
47082;BME280;33066;49.296;14.470;2022-08-05T00:55:39;96804.34;;;27.24;33.04
47082;BME280;33066;49.296;14.470;2022-08-05T00:58:05;96805.02;;;27.18;33.21
47082;BME280;33066;49.296;14.470;2022-08-05T01:00:30;96802.26;;;27.09;33.29
47082;BME280;33066;49.296;14.470;2022-08-05T01:02:56;96804.40;;;27.19;33.50
47082;BME280;33066;49.296;14.470;2022-08-05T01:05:21;96804.79;;;26.89;33.59
47082;BME280;33066;49.296;14.470;2022-08-05T01:07:46;96801.14;;;27.16;33.55
47082;BME280;33066;49.296;14.470;2022-08-05T01:10:13;96801.89;;;27.11;33.63
47082;BME280;33066;49.296;14.470;2022-08-05T01:12:38;96799.83;;;27.02;33.69
47082;BME280;33066;49.296;14.470;2022-08-05T01:15:04;96798.24;;;27.24;33.74
47082;BME280;33066;49.296;14.470;2022-08-05T01:17:32;96795.99;;;27.27;33.70
47082;BME280;33066;49.296;14.470;2022-08-05T01:20:02;96792.63;;;26.80;33.60
47082;BME280;33066;49.296;14.470;2022-08-05T01:24:59;96788.73;;;26.65;33.74
47082;BME280;33066;49.296;14.470;2022-08-05T01:27:24;96788.27;;;27.06;33.85
47082;BME280;33066;49.296;14.470;2022-08-05T01:29:37;96788.65;;;26.75;34.02
47082;BME280;33066;49.296;14.470;2022-08-05T01:32:04;96788.44;;;26.92;34.06
47082;BME280;33066;49.296;14.470;2022-08-05T01:34:31;96788.18;;;26.62;34.06
47082;BME280;33066;49.296;14.470;2022-08-05T01:36:55;96786.25;;;26.81;34.11
47082;BME280;33066;49.296;14.470;2022-08-05T01:39:18;96780.67;;;26.81;34.06
47082;BME280;33066;49.296;14.470;2022-08-05T01:41:44;96774.89;;;26.59;34.08
47082;BME280;33066;49.296;14.470;2022-08-05T01:44:09;96772.40;;;26.81;34.00
47082;BME280;33066;49.296;14.470;2022-08-05T01:46:36;96771.88;;;26.71;34.04
47082;BME280;33066;49.296;14.470;2022-08-05T01:49:02;96770.60;;;26.62;34.07
47082;BME280;33066;49.296;14.470;2022-08-05T01:51:26;96770.50;;;26.34;34.03
47082;BME280;33066;49.296;14.470;2022-08-05T01:53:52;96768.71;;;26.38;34.08
47082;BME280;33066;49.296;14.470;2022-08-05T01:56:18;96769.26;;;26.62;34.11
47082;BME280;33066;49.296;14.470;2022-08-05T01:58:41;96770.80;;;26.56;34.19
47082;BME280;33066;49.296;14.470;2022-08-05T02:01:06;96769.86;;;26.80;34.13
47082;BME280;33066;49.296;14.470;2022-08-05T02:03:35;96767.13;;;26.56;34.20
47082;BME280;33066;49.296;14.470;2022-08-05T02:05:57;96764.86;;;26.52;34.25
47082;BME280;33066;49.296;14.470;2022-08-05T02:08:23;96764.90;;;26.51;34.27
47082;BME280;33066;49.296;14.470;2022-08-05T02:10:52;96762.90;;;26.71;34.29
47082;BME280;33066;49.296;14.470;2022-08-05T02:13:16;96759.54;;;26.51;34.23
47082;BME280;33066;49.296;14.470;2022-08-05T02:15:42;96758.72;;;26.77;34.21
47082;BME280;33066;49.296;14.470;2022-08-05T02:18:06;96757.24;;;26.50;34.17
47082;BME280;33066;49.296;14.470;2022-08-05T02:20:34;96755.64;;;26.47;34.19
47082;BME280;33066;49.296;14.470;2022-08-05T02:23:00;96757.30;;;26.14;34.24
47082;BME280;33066;49.296;14.470;2022-08-05T02:25:25;96755.48;;;26.30;34.31
47082;BME280;33066;49.296;14.470;2022-08-05T02:27:48;96755.85;;;26.28;34.38
47082;BME280;33066;49.296;14.470;2022-08-05T02:30:12;96755.52;;;26.47;34.45
47082;BME280;33066;49.296;14.470;2022-08-05T02:32:39;96756.47;;;26.22;34.43
47082;BME280;33066;49.296;14.470;2022-08-05T02:35:05;96759.44;;;26.43;34.47
47082;BME280;33066;49.296;14.470;2022-08-05T02:37:30;96762.77;;;26.39;34.51
47082;BME280;33066;49.296;14.470;2022-08-05T02:39:56;96758.82;;;26.14;34.48
47082;BME280;33066;49.296;14.470;2022-08-05T02:42:20;96756.82;;;26.36;34.44
47082;BME280;33066;49.296;14.470;2022-08-05T02:44:45;96753.43;;;26.09;34.43
47082;BME280;33066;49.296;14.470;2022-08-05T02:47:10;96754.07;;;26.09;34.39
47082;BME280;33066;49.296;14.470;2022-08-05T02:49:38;96750.52;;;26.35;34.34
47082;BME280;33066;49.296;14.470;2022-08-05T02:52:01;96749.54;;;26.31;34.35
47082;BME280;33066;49.296;14.470;2022-08-05T02:54:26;96746.36;;;26.29;34.37
47082;BME280;33066;49.296;14.470;2022-08-05T02:56:52;96743.62;;;26.04;34.37
47082;BME280;33066;49.296;14.470;2022-08-05T02:59:18;96744.12;;;25.98;34.39
47082;BME280;33066;49.296;14.470;2022-08-05T03:01:43;96745.15;;;25.94;34.38
47082;BME280;33066;49.296;14.470;2022-08-05T03:04:13;96747.18;;;25.94;34.34
47082;BME280;33066;49.296;14.470;2022-08-05T03:06:34;96749.28;;;26.17;33.93
47082;BME280;33066;49.296;14.470;2022-08-05T03:08:59;96746.69;;;25.83;33.87
47082;BME280;33066;49.296;14.470;2022-08-05T03:13:00;96740.96;;;26.05;33.98
47082;BME280;33066;49.296;14.470;2022-08-05T03:15:25;96742.36;;;26.16;34.16
47082;BME280;33066;49.296;14.470;2022-08-05T03:17:51;96742.57;;;25.86;34.23
47082;BME280;33066;49.296;14.470;2022-08-05T03:20:16;96740.32;;;26.06;34.27
47082;BME280;33066;49.296;14.470;2022-08-05T03:22:41;96736.34;;;25.68;34.40
47082;BME280;33066;49.296;14.470;2022-08-05T03:25:07;96738.76;;;25.82;34.54
47082;BME280;33066;49.296;14.470;2022-08-05T03:27:31;96738.04;;;26.03;34.30
47082;BME280;33066;49.296;14.470;2022-08-05T03:29:57;96737.47;;;25.88;33.87
47082;BME280;33066;49.296;14.470;2022-08-05T03:32:23;96734.78;;;25.87;34.06
47082;BME280;33066;49.296;14.470;2022-08-05T03:34:48;96729.61;;;25.96;34.24
47082;BME280;33066;49.296;14.470;2022-08-05T03:37:14;96728.07;;;25.84;34.40
47082;BME280;33066;49.296;14.470;2022-08-05T03:39:51;96729.13;;;25.79;34.45
47082;BME280;33066;49.296;14.470;2022-08-05T03:42:06;96732.99;;;25.83;34.52
47082;BME280;33066;49.296;14.470;2022-08-05T03:44:30;96734.76;;;25.87;33.78
47082;BME280;33066;49.296;14.470;2022-08-05T03:46:55;96735.98;;;25.89;33.67
47082;BME280;33066;49.296;14.470;2022-08-05T03:49:20;96736.27;;;25.79;34.02
47082;BME280;33066;49.296;14.470;2022-08-05T03:51:52;96734.60;;;25.44;33.63
47082;BME280;33066;49.296;14.470;2022-08-05T03:54:16;96736.88;;;25.42;33.73
47082;BME280;33066;49.296;14.470;2022-08-05T03:56:38;96738.44;;;25.38;34.13
47082;BME280;33066;49.296;14.470;2022-08-05T03:59:02;96740.46;;;25.57;34.41
47082;BME280;33066;49.296;14.470;2022-08-05T04:01:28;96740.47;;;25.33;34.55
47082;BME280;33066;49.296;14.470;2022-08-05T04:03:51;96738.87;;;25.60;34.59
47082;BME280;33066;49.296;14.470;2022-08-05T04:06:18;96739.01;;;25.60;34.55
47082;BME280;33066;49.296;14.470;2022-08-05T04:08:42;96738.41;;;25.36;34.52
47082;BME280;33066;49.296;14.470;2022-08-05T04:11:08;96738.53;;;25.58;34.41
47082;BME280;33066;49.296;14.470;2022-08-05T04:13:32;96739.49;;;25.59;34.44
47082;BME280;33066;49.296;14.470;2022-08-05T04:15:57;96738.51;;;25.60;34.53
47082;BME280;33066;49.296;14.470;2022-08-05T04:18:24;96734.48;;;25.65;34.60
47082;BME280;33066;49.296;14.470;2022-08-05T04:20:53;96737.43;;;25.70;34.56
47082;BME280;33066;49.296;14.470;2022-08-05T04:23:14;96737.00;;;25.50;34.51
47082;BME280;33066;49.296;14.470;2022-08-05T04:25:40;96737.05;;;25.52;34.39
47082;BME280;33066;49.296;14.470;2022-08-05T04:28:05;96735.04;;;25.60;34.41
47082;BME280;33066;49.296;14.470;2022-08-05T04:30:31;96735.76;;;25.65;34.40
47082;BME280;33066;49.296;14.470;2022-08-05T04:32:57;96736.39;;;25.96;34.37
47082;BME280;33066;49.296;14.470;2022-08-05T04:35:21;96738.15;;;25.98;34.33
47082;BME280;33066;49.296;14.470;2022-08-05T04:37:46;96737.91;;;25.67;34.42
47082;BME280;33066;49.296;14.470;2022-08-05T04:40:12;96738.20;;;25.73;34.41
47082;BME280;33066;49.296;14.470;2022-08-05T04:42:37;96740.50;;;25.93;34.52
47082;BME280;33066;49.296;14.470;2022-08-05T04:45:04;96739.74;;;25.75;34.39
47082;BME280;33066;49.296;14.470;2022-08-05T04:47:29;96739.61;;;26.04;34.21
47082;BME280;33066;49.296;14.470;2022-08-05T04:49:54;96741.07;;;26.03;34.20
47082;BME280;33066;49.296;14.470;2022-08-05T04:52:20;96742.61;;;25.93;34.33
47082;BME280;33066;49.296;14.470;2022-08-05T04:54:45;96741.83;;;26.08;34.13
47082;BME280;33066;49.296;14.470;2022-08-05T04:57:11;96739.86;;;26.19;33.97
47082;BME280;33066;49.296;14.470;2022-08-05T04:59:39;96740.89;;;26.03;33.51
47082;BME280;33066;49.296;14.470;2022-08-05T05:02:02;96743.79;;;26.08;33.27
47082;BME280;33066;49.296;14.470;2022-08-05T05:04:27;96747.02;;;26.04;33.34
47082;BME280;33066;49.296;14.470;2022-08-05T05:06:52;96753.02;;;25.98;33.25
47082;BME280;33066;49.296;14.470;2022-08-05T05:09:17;96749.80;;;26.61;33.20
47082;BME280;33066;49.296;14.470;2022-08-05T05:11:42;96749.19;;;26.27;33.09
47082;BME280;33066;49.296;14.470;2022-08-05T05:14:08;96749.16;;;26.33;33.05
47082;BME280;33066;49.296;14.470;2022-08-05T05:16:33;96747.20;;;26.35;32.89
47082;BME280;33066;49.296;14.470;2022-08-05T05:18:58;96744.88;;;26.39;32.84
47082;BME280;33066;49.296;14.470;2022-08-05T05:21:24;96742.39;;;26.54;32.71
47082;BME280;33066;49.296;14.470;2022-08-05T05:23:50;96738.86;;;26.86;32.59
47082;BME280;33066;49.296;14.470;2022-08-05T05:26:16;96740.81;;;25.99;32.57
47082;BME280;33066;49.296;14.470;2022-08-05T05:28:41;96740.01;;;26.82;32.29
47082;BME280;33066;49.296;14.470;2022-08-05T05:31:06;96742.36;;;27.00;32.24
47082;BME280;33066;49.296;14.470;2022-08-05T05:33:32;96745.37;;;26.92;32.28
47082;BME280;33066;49.296;14.470;2022-08-05T05:35:57;96747.20;;;26.68;32.20
47082;BME280;33066;49.296;14.470;2022-08-05T05:38:23;96749.62;;;26.80;32.08
47082;BME280;33066;49.296;14.470;2022-08-05T05:40:49;96751.97;;;27.08;31.91
47082;BME280;33066;49.296;14.470;2022-08-05T05:43:14;96751.94;;;26.92;31.60
47082;BME280;33066;49.296;14.470;2022-08-05T05:45:40;96747.54;;;27.04;31.45
47082;BME280;33066;49.296;14.470;2022-08-05T05:48:04;96745.96;;;27.13;31.22
47082;BME280;33066;49.296;14.470;2022-08-05T05:50:29;96747.83;;;27.20;30.99
47082;BME280;33066;49.296;14.470;2022-08-05T05:52:54;96747.89;;;27.29;30.96
47082;BME280;33066;49.296;14.470;2022-08-05T05:55:25;96747.99;;;27.04;31.07
47082;BME280;33066;49.296;14.470;2022-08-05T05:57:46;96747.22;;;27.13;31.05
47082;BME280;33066;49.296;14.470;2022-08-05T06:00:13;96748.25;;;27.30;30.90
47082;BME280;33066;49.296;14.470;2022-08-05T06:02:36;96744.95;;;27.38;30.61
47082;BME280;33066;49.296;14.470;2022-08-05T06:05:00;96744.32;;;27.45;30.61
47082;BME280;33066;49.296;14.470;2022-08-05T06:07:28;96746.89;;;27.55;30.53
47082;BME280;33066;49.296;14.470;2022-08-05T06:09:53;96751.28;;;27.67;30.62
47082;BME280;33066;49.296;14.470;2022-08-05T06:12:17;96754.27;;;27.32;30.45
47082;BME280;33066;49.296;14.470;2022-08-05T06:14:42;96753.68;;;27.87;30.24
47082;BME280;33066;49.296;14.470;2022-08-05T06:17:09;96751.04;;;27.74;30.29
47082;BME280;33066;49.296;14.470;2022-08-05T06:19:32;96747.92;;;28.10;30.12
47082;BME280;33066;49.296;14.470;2022-08-05T06:21:58;96745.89;;;27.96;30.07
47082;BME280;33066;49.296;14.470;2022-08-05T06:24:23;96745.47;;;28.28;30.28
47082;BME280;33066;49.296;14.470;2022-08-05T06:26:49;96747.30;;;28.13;30.30
47082;BME280;33066;49.296;14.470;2022-08-05T06:29:15;96745.83;;;28.24;29.75
47082;BME280;33066;49.296;14.470;2022-08-05T06:31:40;96744.38;;;28.31;29.99
47082;BME280;33066;49.296;14.470;2022-08-05T06:34:06;96741.69;;;28.42;29.88
47082;BME280;33066;49.296;14.470;2022-08-05T06:36:32;96744.00;;;28.46;30.04
47082;BME280;33066;49.296;14.470;2022-08-05T06:38:58;96744.73;;;28.34;30.21
47082;BME280;33066;49.296;14.470;2022-08-05T06:41:23;96741.75;;;28.92;29.94
47082;BME280;33066;49.296;14.470;2022-08-05T06:43:49;96741.62;;;28.75;29.78
47082;BME280;33066;49.296;14.470;2022-08-05T06:46:14;96747.59;;;28.54;29.98
47082;BME280;33066;49.296;14.470;2022-08-05T06:48:39;96750.64;;;28.83;29.62
47082;BME280;33066;49.296;14.470;2022-08-05T06:51:06;96748.30;;;28.64;29.77
47082;BME280;33066;49.296;14.470;2022-08-05T06:53:30;96747.72;;;28.97;29.89
47082;BME280;33066;49.296;14.470;2022-08-05T06:55:56;96747.68;;;29.26;30.01
47082;BME280;33066;49.296;14.470;2022-08-05T06:58:22;96747.87;;;29.04;29.74
47082;BME280;33066;49.296;14.470;2022-08-05T07:00:47;96746.37;;;28.86;29.72
47082;BME280;33066;49.296;14.470;2022-08-05T07:03:14;96744.02;;;29.11;29.74
47082;BME280;33066;49.296;14.470;2022-08-05T07:05:38;96737.27;;;28.87;29.84
47082;BME280;33066;49.296;14.470;2022-08-05T07:08:04;96735.21;;;28.81;29.92
47082;BME280;33066;49.296;14.470;2022-08-05T07:10:29;96735.22;;;28.92;29.86
47082;BME280;33066;49.296;14.470;2022-08-05T07:12:55;96731.59;;;29.05;30.14
47082;BME280;33066;49.296;14.470;2022-08-05T07:15:20;96730.94;;;29.18;29.96
47082;BME280;33066;49.296;14.470;2022-08-05T07:17:46;96730.15;;;28.79;29.97
47082;BME280;33066;49.296;14.470;2022-08-05T07:20:12;96730.49;;;29.28;29.65
47082;BME280;33066;49.296;14.470;2022-08-05T07:22:38;96731.76;;;29.14;29.69
47082;BME280;33066;49.296;14.470;2022-08-05T07:25:03;96736.53;;;29.19;29.68
47082;BME280;33066;49.296;14.470;2022-08-05T07:27:28;96739.03;;;29.51;29.38
47082;BME280;33066;49.296;14.470;2022-08-05T07:29:58;96736.19;;;29.32;29.45
47082;BME280;33066;49.296;14.470;2022-08-05T07:32:19;96735.11;;;29.46;29.42
47082;BME280;33066;49.296;14.470;2022-08-05T07:34:45;96733.44;;;29.53;29.15
47082;BME280;33066;49.296;14.470;2022-08-05T07:37:12;96730.22;;;29.30;28.69
47082;BME280;33066;49.296;14.470;2022-08-05T07:39:37;96731.50;;;29.66;28.42
47082;BME280;33066;49.296;14.470;2022-08-05T07:42:02;96733.43;;;29.73;28.31
47082;BME280;33066;49.296;14.470;2022-08-05T07:44:27;96738.07;;;29.53;28.16
47082;BME280;33066;49.296;14.470;2022-08-05T07:46:52;96741.26;;;29.60;28.13
47082;BME280;33066;49.296;14.470;2022-08-05T07:49:19;96743.43;;;29.64;28.45
47082;BME280;33066;49.296;14.470;2022-08-05T07:51:45;96741.78;;;29.72;28.12
47082;BME280;33066;49.296;14.470;2022-08-05T07:54:10;96742.67;;;29.78;28.01
47082;BME280;33066;49.296;14.470;2022-08-05T07:56:35;96742.68;;;29.87;27.90
47082;BME280;33066;49.296;14.470;2022-08-05T07:59:00;96742.54;;;29.65;28.13
47082;BME280;33066;49.296;14.470;2022-08-05T08:01:26;96745.54;;;30.02;27.85
47082;BME280;33066;49.296;14.470;2022-08-05T08:03:53;96743.49;;;30.07;28.21
47082;BME280;33066;49.296;14.470;2022-08-05T08:06:18;96740.91;;;30.19;28.00
47082;BME280;33066;49.296;14.470;2022-08-05T08:08:43;96739.63;;;30.31;27.89
47082;BME280;33066;49.296;14.470;2022-08-05T08:11:08;96741.76;;;30.39;27.79
47082;BME280;33066;49.296;14.470;2022-08-05T08:13:34;96744.78;;;30.40;27.83
47082;BME280;33066;49.296;14.470;2022-08-05T08:16:00;96744.63;;;30.26;27.64
47082;BME280;33066;49.296;14.470;2022-08-05T08:18:25;96740.86;;;30.58;27.91
47082;BME280;33066;49.296;14.470;2022-08-05T08:20:51;96740.46;;;30.47;27.82
47082;BME280;33066;49.296;14.470;2022-08-05T08:23:18;96741.05;;;30.54;27.60
47082;BME280;33066;49.296;14.470;2022-08-05T08:25:41;96744.34;;;30.57;27.74
47082;BME280;33066;49.296;14.470;2022-08-05T08:28:09;96747.16;;;30.49;27.77
47082;BME280;33066;49.296;14.470;2022-08-05T08:30:33;96743.79;;;30.54;27.68
47082;BME280;33066;49.296;14.470;2022-08-05T08:32:58;96737.02;;;30.61;28.14
47082;BME280;33066;49.296;14.470;2022-08-05T08:35:24;96737.11;;;30.48;28.38
47082;BME280;33066;49.296;14.470;2022-08-05T08:37:49;96738.04;;;30.59;28.01
47082;BME280;33066;49.296;14.470;2022-08-05T08:40:14;96742.43;;;30.90;28.27
47082;BME280;33066;49.296;14.470;2022-08-05T08:42:40;96747.49;;;30.79;28.25
47082;BME280;33066;49.296;14.470;2022-08-05T08:45:07;96748.00;;;30.92;27.74
47082;BME280;33066;49.296;14.470;2022-08-05T08:47:31;96748.52;;;30.98;28.08
47082;BME280;33066;49.296;14.470;2022-08-05T08:49:57;96746.83;;;31.07;28.10
47082;BME280;33066;49.296;14.470;2022-08-05T08:52:24;96746.33;;;31.18;28.36
47082;BME280;33066;49.296;14.470;2022-08-05T08:54:50;96745.74;;;31.30;28.08
47082;BME280;33066;49.296;14.470;2022-08-05T08:57:12;96748.47;;;31.39;27.94
47082;BME280;33066;49.296;14.470;2022-08-05T08:59:38;96746.31;;;31.45;27.71
47082;BME280;33066;49.296;14.470;2022-08-05T09:02:05;96742.64;;;31.51;27.53
47082;BME280;33066;49.296;14.470;2022-08-05T09:04:30;96742.54;;;31.59;27.33
47082;BME280;33066;49.296;14.470;2022-08-05T09:06:54;96737.74;;;31.64;27.43
47082;BME280;33066;49.296;14.470;2022-08-05T09:09:20;96735.39;;;31.71;27.48
47082;BME280;33066;49.296;14.470;2022-08-05T09:11:47;96733.90;;;31.78;26.94
47082;BME280;33066;49.296;14.470;2022-08-05T09:14:11;96730.03;;;31.39;26.75
47082;BME280;33066;49.296;14.470;2022-08-05T09:16:37;96730.60;;;31.68;26.71
47082;BME280;33066;49.296;14.470;2022-08-05T09:19:03;96732.20;;;31.69;26.78
47082;BME280;33066;49.296;14.470;2022-08-05T09:21:29;96731.07;;;31.80;27.05
47082;BME280;33066;49.296;14.470;2022-08-05T09:24:02;96722.31;;;32.21;26.52
47082;BME280;33066;49.296;14.470;2022-08-05T09:26:19;96722.12;;;32.08;26.68
47082;BME280;33066;49.296;14.470;2022-08-05T09:28:46;96721.22;;;32.10;26.62
47082;BME280;33066;49.296;14.470;2022-08-05T09:31:14;96721.81;;;32.25;26.38
47082;BME280;33066;49.296;14.470;2022-08-05T09:33:46;96722.06;;;32.50;26.03
47082;BME280;33066;49.296;14.470;2022-08-05T09:36:02;96716.93;;;32.54;26.05
47082;BME280;33066;49.296;14.470;2022-08-05T09:38:27;96714.00;;;32.45;26.15
47082;BME280;33066;49.296;14.470;2022-08-05T09:40:52;96709.03;;;32.83;26.34
47082;BME280;33066;49.296;14.470;2022-08-05T09:43:28;96709.08;;;32.99;25.97
47082;BME280;33066;49.296;14.470;2022-08-05T09:45:44;96709.88;;;32.98;26.17
47082;BME280;33066;49.296;14.470;2022-08-05T09:48:18;96713.19;;;33.44;26.01
47082;BME280;33066;49.296;14.470;2022-08-05T09:50:34;96714.14;;;33.19;26.21
47082;BME280;33066;49.296;14.470;2022-08-05T09:52:58;96715.53;;;33.64;25.93
47082;BME280;33066;49.296;14.470;2022-08-05T09:55:23;96716.44;;;33.89;25.92
47082;BME280;33066;49.296;14.470;2022-08-05T09:57:49;96721.94;;;33.64;25.75
47082;BME280;33066;49.296;14.470;2022-08-05T10:00:18;96721.87;;;34.11;25.45
47082;BME280;33066;49.296;14.470;2022-08-05T10:02:41;96721.71;;;34.40;25.42
47082;BME280;33066;49.296;14.470;2022-08-05T10:05:09;96718.46;;;34.44;25.13
47082;BME280;33066;49.296;14.470;2022-08-05T10:07:44;96721.90;;;34.82;24.06
47082;BME280;33066;49.296;14.470;2022-08-05T10:09:58;96724.02;;;34.54;23.20
47082;BME280;33066;49.296;14.470;2022-08-05T10:12:23;96724.26;;;34.54;22.92
47082;BME280;33066;49.296;14.470;2022-08-05T10:14:49;96723.59;;;34.94;22.78
47082;BME280;33066;49.296;14.470;2022-08-05T10:17:14;96718.61;;;34.83;22.58
47082;BME280;33066;49.296;14.470;2022-08-05T10:19:42;96716.30;;;35.11;23.01
47082;BME280;33066;49.296;14.470;2022-08-05T10:22:04;96709.29;;;35.08;22.43
47082;BME280;33066;49.296;14.470;2022-08-05T10:24:31;96702.81;;;35.61;21.96
47082;BME280;33066;49.296;14.470;2022-08-05T10:26:54;96704.41;;;35.46;21.80
47082;BME280;33066;49.296;14.470;2022-08-05T10:29:20;96708.65;;;35.41;22.00
47082;BME280;33066;49.296;14.470;2022-08-05T10:31:45;96708.98;;;35.54;21.53
47082;BME280;33066;49.296;14.470;2022-08-05T10:34:10;96709.64;;;35.51;21.48
47082;BME280;33066;49.296;14.470;2022-08-05T10:36:39;96700.40;;;35.72;19.66
47082;BME280;33066;49.296;14.470;2022-08-05T10:39:09;96701.23;;;36.16;19.28
47082;BME280;33066;49.296;14.470;2022-08-05T10:41:32;96695.39;;;36.46;19.19
47082;BME280;33066;49.296;14.470;2022-08-05T10:43:58;96695.38;;;36.57;19.55
47082;BME280;33066;49.296;14.470;2022-08-05T10:46:20;96696.90;;;36.34;20.09
47082;BME280;33066;49.296;14.470;2022-08-05T10:48:48;96703.50;;;36.76;19.02
47082;BME280;33066;49.296;14.470;2022-08-05T10:51:12;96705.91;;;37.08;19.23
47082;BME280;33066;49.296;14.470;2022-08-05T10:53:38;96703.96;;;37.31;18.88
47082;BME280;33066;49.296;14.470;2022-08-05T10:56:03;96705.03;;;37.70;18.86
47082;BME280;33066;49.296;14.470;2022-08-05T10:58:27;96706.71;;;37.83;19.25
47082;BME280;33066;49.296;14.470;2022-08-05T11:00:55;96706.03;;;38.13;18.26
47082;BME280;33066;49.296;14.470;2022-08-05T11:03:19;96704.78;;;38.27;18.51
47082;BME280;33066;49.296;14.470;2022-08-05T11:08:10;96701.03;;;38.48;18.51
47082;BME280;33066;49.296;14.470;2022-08-05T11:10:37;96696.43;;;38.88;18.36
47082;BME280;33066;49.296;14.470;2022-08-05T11:13:02;96694.76;;;38.86;17.83
47082;BME280;33066;49.296;14.470;2022-08-05T11:15:31;96696.78;;;38.72;17.36
47082;BME280;33066;49.296;14.470;2022-08-05T11:17:53;96699.26;;;38.61;17.43
47082;BME280;33066;49.296;14.470;2022-08-05T11:20:32;96698.22;;;38.93;17.53
47082;BME280;33066;49.296;14.470;2022-08-05T11:22:44;96698.09;;;39.13;17.87
47082;BME280;33066;49.296;14.470;2022-08-05T11:25:28;96696.85;;;39.27;17.01
47082;BME280;33066;49.296;14.470;2022-08-05T11:27:33;96699.28;;;39.17;17.32
47082;BME280;33066;49.296;14.470;2022-08-05T11:29:59;96702.01;;;39.29;17.34
47082;BME280;33066;49.296;14.470;2022-08-05T11:32:28;96698.84;;;39.54;17.26
47082;BME280;33066;49.296;14.470;2022-08-05T11:34:51;96705.67;;;39.62;16.52
47082;BME280;33066;49.296;14.470;2022-08-05T11:39:47;96704.11;;;39.45;15.99
47082;BME280;33066;49.296;14.470;2022-08-05T11:42:08;96701.67;;;39.27;16.07
47082;BME280;33066;49.296;14.470;2022-08-05T11:44:36;96696.22;;;39.60;16.89
47082;BME280;33066;49.296;14.470;2022-08-05T11:46:58;96695.62;;;40.00;16.72
47082;BME280;33066;49.296;14.470;2022-08-05T11:49:24;96696.53;;;39.83;16.32
47082;BME280;33066;49.296;14.470;2022-08-05T11:51:50;96693.59;;;40.30;15.81
47082;BME280;33066;49.296;14.470;2022-08-05T11:54:20;96693.52;;;40.24;15.90
47082;BME280;33066;49.296;14.470;2022-08-05T11:56:45;96694.86;;;39.91;15.98
47082;BME280;33066;49.296;14.470;2022-08-05T11:59:06;96696.41;;;40.29;15.61
47082;BME280;33066;49.296;14.470;2022-08-05T12:01:31;96694.29;;;40.66;15.46
47082;BME280;33066;49.296;14.470;2022-08-05T12:03:57;96698.12;;;40.54;15.01
47082;BME280;33066;49.296;14.470;2022-08-05T12:06:25;96700.93;;;40.94;15.35
47082;BME280;33066;49.296;14.470;2022-08-05T12:08:51;96696.10;;;40.77;14.90
47082;BME280;33066;49.296;14.470;2022-08-05T12:11:17;96701.01;;;40.37;14.89
47082;BME280;33066;49.296;14.470;2022-08-05T12:13:39;96701.76;;;40.95;15.32
47082;BME280;33066;49.296;14.470;2022-08-05T12:16:07;96699.37;;;41.02;15.27
47082;BME280;33066;49.296;14.470;2022-08-05T12:18:33;96695.66;;;41.05;14.84
47082;BME280;33066;49.296;14.470;2022-08-05T12:21:10;96689.39;;;40.99;14.57
47082;BME280;33066;49.296;14.470;2022-08-05T12:23:22;96692.96;;;41.14;14.93
47082;BME280;33066;49.296;14.470;2022-08-05T12:25:49;96694.11;;;41.40;14.96
47082;BME280;33066;49.296;14.470;2022-08-05T12:28:12;96692.51;;;41.33;15.21
47082;BME280;33066;49.296;14.470;2022-08-05T12:30:38;96693.90;;;41.43;15.26
47082;BME280;33066;49.296;14.470;2022-08-05T12:33:03;96688.83;;;41.58;14.70
47082;BME280;33066;49.296;14.470;2022-08-05T12:35:31;96682.24;;;41.44;14.60
47082;BME280;33066;49.296;14.470;2022-08-05T12:37:54;96685.31;;;41.42;14.77
47082;BME280;33066;49.296;14.470;2022-08-05T12:40:20;96682.58;;;41.21;14.77
47082;BME280;33066;49.296;14.470;2022-08-05T12:42:47;96679.68;;;41.39;14.64
47082;BME280;33066;49.296;14.470;2022-08-05T12:45:12;96681.81;;;42.10;14.65
47082;BME280;33066;49.296;14.470;2022-08-05T12:47:37;96681.42;;;42.62;14.73
47082;BME280;33066;49.296;14.470;2022-08-05T12:50:11;96673.50;;;42.69;14.33